createdAt,value
2023-04-25T00:01:02.546Z,100073.96
2023-04-25T00:02:04.029Z,100074.30
2023-04-25T00:03:06.883Z,100071.14
2023-04-25T00:04:08.592Z,100071.34
2023-04-25T00:05:10.666Z,100069.83
2023-04-25T00:06:12.530Z,100070.91
2023-04-25T00:07:14.041Z,100068.70
2023-04-25T00:08:15.523Z,100070.43
2023-04-25T00:09:17.101Z,100072.56
2023-04-25T00:10:19.750Z,100074.10
2023-04-25T00:11:21.230Z,100070.86
2023-04-25T00:12:23.248Z,100069.74
2023-04-25T00:13:25.869Z,100071.01
2023-04-25T00:14:28.063Z,100069.64
2023-04-25T00:15:32.363Z,100064.80
2023-04-25T00:16:35.167Z,100067.20
2023-04-25T00:17:38.624Z,100065.11
2023-04-25T00:18:40.127Z,100064.27
2023-04-25T00:19:41.626Z,100065.24
2023-04-25T00:20:46.693Z,100063.95
2023-04-25T00:21:48.313Z,100061.06
2023-04-25T00:22:50.048Z,100064.77
2023-04-25T00:23:53.421Z,100059.55
2023-04-25T00:24:57.523Z,100062.85
2023-04-25T00:25:58.987Z,100063.77
2023-04-25T00:27:00.423Z,100063.73
2023-04-25T00:28:01.908Z,100058.32
2023-04-25T00:29:03.846Z,100062.20
2023-04-25T00:30:06.087Z,100058.70
2023-04-25T00:31:07.742Z,100060.38
2023-04-25T00:32:09.274Z,100054.67
2023-04-25T00:33:10.744Z,100053.92
2023-04-25T00:34:12.254Z,100056.10
2023-04-25T00:35:13.736Z,100055.05
2023-04-25T00:36:15.240Z,100053.96
2023-04-25T00:37:16.776Z,100055.14
2023-04-25T00:38:18.273Z,100055.70
2023-04-25T00:39:20.137Z,100057.39
2023-04-25T00:40:21.731Z,100061.55
2023-04-25T00:41:25.582Z,100059.17
2023-04-25T00:42:27.361Z,100060.66
2023-04-25T00:43:31.730Z,100063.09
2023-04-25T00:44:35.718Z,100067.07
2023-04-25T00:45:39.685Z,100065.61
2023-04-25T00:46:41.758Z,100063.40
2023-04-25T00:47:43.879Z,100067.33
2023-04-25T00:48:45.733Z,100063.23
2023-04-25T00:49:47.629Z,100065.77
2023-04-25T00:50:56.996Z,100063.77
2023-04-25T00:51:58.478Z,100066.42
2023-04-25T00:53:01.098Z,100065.13
2023-04-25T00:54:02.697Z,100067.55
2023-04-25T00:55:04.745Z,100068.84
2023-04-25T00:56:06.421Z,100068.90
2023-04-25T00:57:07.980Z,100073.15
2023-04-25T00:58:09.530Z,100070.35
2023-04-25T00:59:11.587Z,100070.38
2023-04-25T01:00:15.234Z,100071.59
2023-04-25T01:01:16.845Z,100070.67
2023-04-25T01:02:18.821Z,100071.95
2023-04-25T01:03:21.389Z,100074.61
2023-04-25T01:04:23.503Z,100072.77
2023-04-25T01:05:25.294Z,100072.48
2023-04-25T01:06:27.780Z,100069.52
2023-04-25T01:07:29.557Z,100071.41
2023-04-25T01:08:31.897Z,100072.64
2023-04-25T01:09:33.532Z,100073.90
2023-04-25T01:10:36.289Z,100070.61
2023-04-25T01:11:37.790Z,100072.02
2023-04-25T01:12:39.734Z,100072.41
2023-04-25T01:13:41.374Z,100071.61
2023-04-25T01:14:42.897Z,100068.15
2023-04-25T01:15:44.973Z,100072.45
2023-04-25T01:16:46.938Z,100070.80
2023-04-25T01:17:49.582Z,100066.70
2023-04-25T01:18:51.708Z,100066.23
2023-04-25T01:19:53.222Z,100065.04
2023-04-25T01:20:55.921Z,100069.56
2023-04-25T01:21:57.435Z,100065.80
2023-04-25T01:22:59.554Z,100066.48
2023-04-25T01:24:01.398Z,100069.11
2023-04-25T01:25:03.360Z,100070.38
2023-04-25T01:26:07.205Z,100071.13
2023-04-25T01:27:09.154Z,100072.05
2023-04-25T01:28:10.878Z,100069.73
2023-04-25T01:29:12.589Z,100070.80
2023-04-25T01:31:44.946Z,100069.44
2023-04-25T01:32:47.861Z,100074.06
2023-04-25T01:33:49.617Z,100074.65
2023-04-25T01:34:51.480Z,100073.19
2023-04-25T01:35:55.044Z,100071.30
2023-04-25T01:36:56.506Z,100073.30
2023-04-25T01:37:58.441Z,100071.32
2023-04-25T01:39:01.037Z,100073.63
2023-04-25T01:40:05.581Z,100071.20
2023-04-25T01:41:07.433Z,100073.54
2023-04-25T01:42:08.954Z,100073.21
2023-04-25T01:43:12.309Z,100074.79
2023-04-25T01:44:15.015Z,100076.63
2023-04-25T01:45:17.025Z,100075.50
2023-04-25T01:46:18.763Z,100076.79
2023-04-25T01:47:20.548Z,100076.96
2023-04-25T01:48:22.070Z,100074.85
2023-04-25T01:49:24.027Z,100079.00
2023-04-25T01:50:25.788Z,100079.48
2023-04-25T01:51:27.439Z,100079.58
2023-04-25T01:52:29.388Z,100082.69
2023-04-25T01:53:31.646Z,100084.28
2023-04-25T01:54:33.480Z,100084.55
2023-04-25T01:55:35.312Z,100085.33
2023-04-25T01:56:41.304Z,100085.42
2023-04-25T01:57:45.205Z,100087.15
2023-04-25T01:58:46.947Z,100088.21
2023-04-25T02:00:04.579Z,100088.23
2023-04-25T02:01:15.136Z,100087.94
2023-04-25T02:02:20.236Z,100085.04
2023-04-25T02:03:22.011Z,100083.77
2023-04-25T02:04:23.985Z,100086.30
2023-04-25T02:05:26.610Z,100086.74
2023-04-25T02:06:28.442Z,100082.95
2023-04-25T02:07:32.869Z,100084.97
2023-04-25T02:08:34.847Z,100085.24
2023-04-25T02:09:36.270Z,100082.45
2023-04-25T02:10:40.821Z,100084.52
2023-04-25T02:11:50.549Z,100083.67
2023-04-25T02:13:21.246Z,100084.14
2023-04-25T02:14:25.485Z,100087.47
2023-04-25T02:15:40.274Z,100087.45
2023-04-25T02:16:52.595Z,100090.56
2023-04-25T02:17:54.316Z,100090.44
2023-04-25T02:18:55.719Z,100089.89
2023-04-25T02:19:57.143Z,100090.86
2023-04-25T02:21:01.664Z,100090.81
2023-04-25T02:22:03.117Z,100089.62
2023-04-25T02:23:04.707Z,100093.83
2023-04-25T02:24:06.683Z,100091.77
2023-04-25T02:25:11.066Z,100092.35
2023-04-25T02:26:13.677Z,100091.54
2023-04-25T02:27:16.864Z,100093.10
2023-04-25T02:28:18.470Z,100091.33
2023-04-25T02:29:20.432Z,100091.11
2023-04-25T02:30:21.999Z,100092.31
2023-04-25T02:31:23.637Z,100090.11
2023-04-25T02:32:26.167Z,100092.42
2023-04-25T02:33:27.711Z,100092.75
2023-04-25T02:34:29.172Z,100094.65
2023-04-25T02:35:30.607Z,100092.52
2023-04-25T02:36:34.514Z,100093.75
2023-04-25T02:37:37.932Z,100096.39
2023-04-25T02:38:40.099Z,100094.30
2023-04-25T02:39:41.651Z,100097.10
2023-04-25T02:40:43.477Z,100097.19
2023-04-25T02:41:45.094Z,100094.92
2023-04-25T02:42:46.523Z,100094.34
2023-04-25T02:43:48.028Z,100094.08
2023-04-25T02:44:49.654Z,100095.42
2023-04-25T02:45:51.550Z,100098.13
2023-04-25T02:46:53.831Z,100095.48
2023-04-25T02:47:55.407Z,100093.86
2023-04-25T02:48:56.925Z,100096.17
2023-04-25T02:49:58.493Z,100096.39
2023-04-25T02:51:00.412Z,100089.49
2023-04-25T02:52:04.493Z,100092.40
2023-04-25T02:53:06.176Z,100091.89
2023-04-25T02:54:11.499Z,100090.88
2023-04-25T02:55:15.907Z,100089.82
2023-04-25T02:56:17.967Z,100089.80
2023-04-25T02:57:19.541Z,100091.98
2023-04-25T02:58:21.129Z,100089.77
2023-04-25T02:59:24.993Z,100088.98
2023-04-25T03:00:26.399Z,100091.39
2023-04-25T03:01:28.406Z,100092.38
2023-04-25T03:02:30.106Z,100093.57
2023-04-25T03:03:31.802Z,100096.05
2023-04-25T03:04:33.792Z,100095.38
2023-04-25T03:05:35.678Z,100093.17
2023-04-25T03:06:37.369Z,100092.13
2023-04-25T03:07:39.773Z,100092.95
2023-04-25T03:08:41.316Z,100091.42
2023-04-25T03:09:42.806Z,100091.66
2023-04-25T03:10:45.618Z,100091.95
2023-04-25T03:11:48.385Z,100089.23
2023-04-25T03:12:50.195Z,100090.44
2023-04-25T03:13:51.849Z,100094.02
2023-04-25T03:14:54.612Z,100093.27
2023-04-25T03:15:56.106Z,100087.06
2023-04-25T03:16:57.722Z,100093.05
2023-04-25T03:17:59.286Z,100090.72
2023-04-25T03:19:00.982Z,100089.52
2023-04-25T03:20:04.326Z,100089.33
2023-04-25T03:21:06.295Z,100089.77
2023-04-25T03:22:07.771Z,100092.73
2023-04-25T03:23:10.305Z,100092.88
2023-04-25T03:24:12.372Z,100097.02
2023-04-25T03:25:13.784Z,100097.40
2023-04-25T03:26:15.931Z,100097.83
2023-04-25T03:27:18.094Z,100097.39
2023-04-25T03:28:20.289Z,100095.02
2023-04-25T03:29:24.756Z,100094.00
2023-04-25T03:30:26.956Z,100097.98
2023-04-25T03:31:28.513Z,100094.10
2023-04-25T03:32:30.530Z,100091.69
2023-04-25T03:33:32.345Z,100092.92
2023-04-25T03:34:33.780Z,100096.10
2023-04-25T03:35:35.150Z,100089.38
2023-04-25T03:36:36.521Z,100091.20
2023-04-25T03:37:38.050Z,100093.41
2023-04-25T03:38:41.594Z,100094.59
2023-04-25T03:39:43.682Z,100097.27
2023-04-25T03:40:46.069Z,100103.77
2023-04-25T03:41:57.995Z,100108.48
2023-04-25T03:42:59.741Z,100109.09
2023-04-25T03:44:01.339Z,100110.84
2023-04-25T03:45:03.352Z,100108.86
2023-04-25T03:46:05.336Z,100113.75
2023-04-25T03:47:06.815Z,100113.20
2023-04-25T03:48:09.354Z,100115.95
2023-04-25T03:49:10.773Z,100114.63
2023-04-25T03:50:27.399Z,100117.98
2023-04-25T03:51:28.918Z,100118.37
2023-04-25T03:52:30.370Z,100118.41
2023-04-25T03:53:31.930Z,100119.79
2023-04-25T03:55:08.960Z,100125.52
2023-04-25T03:56:11.264Z,100123.77
2023-04-25T03:57:13.342Z,100130.95
2023-04-25T03:58:14.898Z,100125.83
2023-04-25T03:59:16.528Z,100129.92
2023-04-25T04:00:18.023Z,100130.96
2023-04-25T04:01:19.741Z,100129.71
2023-04-25T04:02:21.465Z,100129.56
2023-04-25T04:03:23.776Z,100135.35
2023-04-25T04:04:26.137Z,100135.60
2023-04-25T04:05:28.780Z,100135.77
2023-04-25T04:06:31.506Z,100134.42
2023-04-25T04:07:46.661Z,100133.33
2023-04-25T04:08:48.700Z,100136.55
2023-04-25T04:09:50.177Z,100135.23
2023-04-25T04:10:59.339Z,100132.52
2023-04-25T04:12:02.141Z,100138.31
2023-04-25T04:13:05.278Z,100135.60
2023-04-25T04:14:08.672Z,100137.06
2023-04-25T04:15:11.419Z,100138.86
2023-04-25T04:16:13.273Z,100140.59
2023-04-25T04:17:15.680Z,100141.38
2023-04-25T04:18:17.186Z,100142.01
2023-04-25T04:19:18.687Z,100141.16
2023-04-25T04:20:26.986Z,100145.22
2023-04-25T04:21:28.593Z,100145.20
2023-04-25T04:22:30.163Z,100145.98
2023-04-25T04:23:35.199Z,100147.91
2023-04-25T04:24:37.327Z,100147.54
2023-04-25T04:25:42.225Z,100145.65
2023-04-25T04:27:13.319Z,100148.02
2023-04-25T04:28:28.909Z,100147.01
2023-04-25T04:29:40.003Z,100149.83
2023-04-25T04:31:05.175Z,100148.92
2023-04-25T04:32:09.003Z,100148.07
2023-04-25T04:33:11.607Z,100151.86
2023-04-25T04:34:13.262Z,100152.66
2023-04-25T04:35:14.983Z,100149.19
2023-04-25T04:36:19.993Z,100149.20
2023-04-25T04:37:22.244Z,100149.41
2023-04-25T04:38:24.300Z,100151.02
2023-04-25T04:39:27.370Z,100150.59
2023-04-25T04:40:48.057Z,100155.75
2023-04-25T04:42:08.925Z,100157.31
2023-04-25T04:43:26.284Z,100162.34
2023-04-25T04:44:46.749Z,100158.53
2023-04-25T04:46:10.624Z,100161.02
2023-04-25T04:47:31.110Z,100160.27
2023-04-25T04:49:11.595Z,100155.20
2023-04-25T04:50:33.038Z,100154.55
2023-04-25T04:51:59.686Z,100152.45
2023-04-25T04:53:10.984Z,100153.11
2023-04-25T04:54:32.822Z,100154.77
2023-04-25T04:56:12.815Z,100158.89
2023-04-25T04:57:29.203Z,100160.62
2023-04-25T04:58:49.385Z,100155.95
2023-04-25T05:00:14.111Z,100158.87
2023-04-25T05:01:47.139Z,100157.05
2023-04-25T05:03:07.858Z,100157.84
2023-04-25T05:04:36.192Z,100156.88
2023-04-25T05:06:13.097Z,100154.65
2023-04-25T05:07:43.537Z,100155.23
2023-04-25T05:08:59.321Z,100151.86
2023-04-25T05:10:21.136Z,100157.32
2023-04-25T05:11:50.768Z,100153.32
2023-04-25T05:13:13.374Z,100152.83
2023-04-25T05:14:44.101Z,100150.79
2023-04-25T05:16:06.129Z,100152.48
2023-04-25T05:17:23.225Z,100149.55
2023-04-25T05:18:43.329Z,100152.69
2023-04-25T05:20:11.159Z,100147.30
2023-04-25T05:21:31.751Z,100153.10
2023-04-25T05:22:56.478Z,100155.55
2023-04-25T05:24:12.161Z,100159.96
2023-04-25T05:25:51.825Z,100157.04
2023-04-25T05:27:02.646Z,100160.16
2023-04-25T05:28:29.266Z,100159.02
2023-04-25T05:29:55.089Z,100161.20
2023-04-25T05:31:04.125Z,100157.58
2023-04-25T05:32:15.240Z,100158.11
2023-04-25T05:33:17.133Z,100159.69
2023-04-25T05:34:19.368Z,100165.05
2023-04-25T05:35:46.850Z,100163.02
2023-04-25T05:36:49.365Z,100162.73
2023-04-25T05:37:51.060Z,100167.61
2023-04-25T05:38:54.654Z,100168.73
2023-04-25T05:39:56.191Z,100174.80
2023-04-25T05:41:20.703Z,100173.91
2023-04-25T05:42:31.560Z,100180.94
2023-04-25T05:43:47.243Z,100187.77
2023-04-25T05:45:23.802Z,100186.70
2023-04-25T05:46:39.986Z,100188.84
2023-04-25T05:47:59.475Z,100198.56
2023-04-25T05:49:19.802Z,100196.27
2023-04-25T05:50:56.841Z,100197.80
2023-04-25T05:52:13.459Z,100193.56
2023-04-25T05:53:22.572Z,100196.63
2023-04-25T05:54:30.798Z,100199.38
2023-04-25T05:55:32.475Z,100198.54
2023-04-25T05:56:35.985Z,100195.73
2023-04-25T05:57:37.486Z,100196.29
2023-04-25T05:58:40.578Z,100198.71
2023-04-25T05:59:42.736Z,100195.45
2023-04-25T06:00:44.846Z,100195.85
2023-04-25T06:01:47.064Z,100196.55
2023-04-25T06:02:48.915Z,100200.80
2023-04-25T06:03:51.958Z,100199.95
2023-04-25T06:04:54.122Z,100201.70
2023-04-25T06:05:57.772Z,100206.23
2023-04-25T06:06:59.289Z,100208.05
2023-04-25T06:08:02.236Z,100204.59
2023-04-25T06:09:03.784Z,100204.79
2023-04-25T06:10:07.669Z,100203.23
2023-04-25T06:11:09.090Z,100206.06
2023-04-25T06:12:10.637Z,100204.80
2023-04-25T06:13:12.265Z,100205.88
2023-04-25T06:14:14.448Z,100207.53
2023-04-25T06:16:26.290Z,100207.71
2023-04-25T06:17:28.219Z,100214.41
2023-04-25T06:18:29.736Z,100210.95
2023-04-25T06:19:31.313Z,100208.76
2023-04-25T06:20:32.925Z,100207.36
2023-04-25T06:21:34.926Z,100210.19
2023-04-25T06:22:36.419Z,100213.04
2023-04-25T06:23:37.862Z,100217.08
2023-04-25T06:24:42.276Z,100214.52
2023-04-25T06:25:43.747Z,100216.13
2023-04-25T06:26:45.229Z,100217.84
2023-04-25T06:27:47.177Z,100218.95
2023-04-25T06:28:48.679Z,100218.29
2023-04-25T06:29:50.421Z,100220.65
2023-04-25T06:30:52.001Z,100219.40
2023-04-25T06:31:54.344Z,100220.69
2023-04-25T06:32:56.572Z,100223.34
2023-04-25T06:33:58.817Z,100223.56
2023-04-25T06:35:01.073Z,100222.25
2023-04-25T06:36:02.742Z,100219.49
2023-04-25T06:37:06.307Z,100230.03
2023-04-25T06:38:07.972Z,100223.98
2023-04-25T06:39:11.614Z,100225.20
2023-04-25T06:40:13.123Z,100228.91
2023-04-25T06:41:14.725Z,100228.98
2023-04-25T06:42:16.379Z,100230.82
2023-04-25T06:43:25.344Z,100228.70
2023-04-25T06:44:53.004Z,100227.73
2023-04-25T06:45:57.691Z,100230.83
2023-04-25T06:47:00.718Z,100230.56
2023-04-25T06:48:02.651Z,100232.68
2023-04-25T06:49:04.281Z,100232.86
2023-04-25T06:50:06.324Z,100229.42
2023-04-25T06:51:11.443Z,100233.02
2023-04-25T06:52:13.735Z,100235.89
2023-04-25T06:53:15.327Z,100237.50
2023-04-25T06:54:18.257Z,100240.72
2023-04-25T06:55:26.965Z,100240.72
2023-04-25T06:56:51.337Z,100238.16
2023-04-25T06:57:52.859Z,100241.08
2023-04-25T06:59:16.260Z,100237.17
2023-04-25T07:00:20.773Z,100242.64
2023-04-25T07:01:22.347Z,100237.86
2023-04-25T07:02:24.446Z,100235.96
2023-04-25T07:03:27.161Z,100239.39
2023-04-25T07:04:33.167Z,100241.67
2023-04-25T07:05:35.420Z,100241.84
2023-04-25T07:06:42.648Z,100240.59
2023-04-25T07:07:44.182Z,100238.48
2023-04-25T07:08:45.707Z,100236.53
2023-04-25T07:09:47.339Z,100237.33
2023-04-25T07:10:50.145Z,100238.64
2023-04-25T07:11:51.737Z,100237.31
2023-04-25T07:12:53.545Z,100237.69
2023-04-25T07:13:55.818Z,100236.80
2023-04-25T07:14:57.828Z,100240.48
2023-04-25T07:16:00.213Z,100240.65
2023-04-25T07:17:02.739Z,100240.30
2023-04-25T07:18:05.284Z,100244.27
2023-04-25T07:19:06.997Z,100244.20
2023-04-25T07:20:10.373Z,100243.95
2023-04-25T07:21:12.066Z,100239.71
2023-04-25T07:22:15.162Z,100243.46
2023-04-25T07:23:17.200Z,100242.59
2023-04-25T07:24:19.287Z,100245.73
2023-04-25T07:25:21.402Z,100248.96
2023-04-25T07:26:22.964Z,100247.14
2023-04-25T07:27:46.863Z,100250.50
2023-04-25T07:28:52.407Z,100250.29
2023-04-25T07:29:54.353Z,100252.41
2023-04-25T07:30:58.497Z,100254.00
2023-04-25T07:32:00.128Z,100256.73
2023-04-25T07:33:01.794Z,100253.11
2023-04-25T07:34:03.457Z,100254.64
2023-04-25T07:35:07.491Z,100255.45
2023-04-25T07:36:09.000Z,100255.63
2023-04-25T07:37:10.956Z,100259.41
2023-04-25T07:38:22.049Z,100262.19
2023-04-25T07:39:23.683Z,100258.26
2023-04-25T07:40:25.886Z,100260.58
2023-04-25T07:41:31.641Z,100255.56
2023-04-25T07:42:33.827Z,100257.59
2023-04-25T07:43:36.056Z,100258.98
2023-04-25T07:44:40.480Z,100264.77
2023-04-25T07:45:46.752Z,100264.71
2023-04-25T07:46:49.303Z,100268.56
2023-04-25T07:47:50.773Z,100263.80
2023-04-25T07:48:52.749Z,100264.97
2023-04-25T07:49:54.918Z,100267.74
2023-04-25T07:50:56.792Z,100270.03
2023-04-25T07:51:58.454Z,100268.98
2023-04-25T07:53:00.138Z,100267.48
2023-04-25T07:54:06.337Z,100267.33
2023-04-25T07:55:09.676Z,100267.57
2023-04-25T07:56:26.345Z,100269.37
2023-04-25T07:57:28.010Z,100268.38
2023-04-25T07:58:30.319Z,100273.52
2023-04-25T07:59:35.566Z,100273.39
2023-04-25T08:00:38.220Z,100275.77
2023-04-25T08:02:03.036Z,100277.94
2023-04-25T08:03:04.693Z,100276.84
2023-04-25T08:04:07.447Z,100280.77
2023-04-25T08:05:38.877Z,100276.83
2023-04-25T08:06:41.344Z,100279.67
2023-04-25T08:07:47.137Z,100281.02
2023-04-25T08:08:48.937Z,100280.83
2023-04-25T08:09:52.867Z,100280.65
2023-04-25T08:10:59.608Z,100282.66
2023-04-25T08:12:02.552Z,100286.49
2023-04-25T08:13:06.351Z,100279.55
2023-04-25T08:14:09.867Z,100282.46
2023-04-25T08:15:14.046Z,100282.43
2023-04-25T08:16:16.198Z,100284.77
2023-04-25T08:17:17.719Z,100285.89
2023-04-25T08:18:20.634Z,100287.23
2023-04-25T08:19:22.871Z,100287.22
2023-04-25T08:20:25.424Z,100290.40
2023-04-25T08:21:27.973Z,100291.38
2023-04-25T08:22:30.736Z,100289.92
2023-04-25T08:23:50.504Z,100289.98
2023-04-25T08:25:02.611Z,100292.55
2023-04-25T08:26:05.260Z,100289.69
2023-04-25T08:27:08.136Z,100287.45
2023-04-25T08:28:10.326Z,100292.02
2023-04-25T08:29:12.085Z,100288.36
2023-04-25T08:30:15.074Z,100292.17
2023-04-25T08:31:17.697Z,100293.41
2023-04-25T08:32:30.951Z,100294.02
2023-04-25T08:33:47.941Z,100297.86
2023-04-25T08:34:57.182Z,100299.11
2023-04-25T08:35:59.388Z,100296.98
2023-04-25T08:37:01.972Z,100296.27
2023-04-25T08:38:14.961Z,100295.38
2023-04-25T08:39:16.524Z,100297.73
2023-04-25T08:40:32.903Z,100301.33
2023-04-25T08:41:42.000Z,100296.71
2023-04-25T08:42:43.831Z,100299.45
2023-04-25T08:43:47.074Z,100304.63
2023-04-25T08:44:49.423Z,100305.22
2023-04-25T08:45:53.925Z,100302.48
2023-04-25T08:47:13.436Z,100304.91
2023-04-25T08:48:19.665Z,100310.33
2023-04-25T08:49:21.558Z,100308.05
2023-04-25T08:50:23.713Z,100310.19
2023-04-25T08:51:31.257Z,100310.41
2023-04-25T08:52:40.293Z,100316.15
2023-04-25T08:53:46.158Z,100313.39
2023-04-25T08:54:49.338Z,100315.62
2023-04-25T08:55:54.110Z,100314.54
2023-04-25T08:56:58.801Z,100317.67
2023-04-25T08:58:01.173Z,100319.35
2023-04-25T08:59:02.892Z,100322.09
2023-04-25T09:00:06.146Z,100321.29
2023-04-25T09:01:09.795Z,100322.35
2023-04-25T09:02:20.214Z,100325.85
2023-04-25T09:03:24.005Z,100325.61
2023-04-25T09:04:26.252Z,100326.34
2023-04-25T09:05:29.085Z,100327.40
2023-04-25T09:06:31.016Z,100329.94
2023-04-25T09:07:33.391Z,100328.48
2023-04-25T09:08:37.179Z,100330.73
2023-04-25T09:09:39.645Z,100334.75
2023-04-25T09:10:41.382Z,100333.99
2023-04-25T09:11:43.188Z,100332.85
2023-04-25T09:12:57.098Z,100332.87
2023-04-25T09:14:15.496Z,100333.55
2023-04-25T09:15:51.688Z,100336.02
2023-04-25T09:17:13.534Z,100338.39
2023-04-25T09:18:31.125Z,100339.05
2023-04-25T09:19:40.290Z,100336.88
2023-04-25T09:21:56.534Z,100340.21
2023-04-25T09:23:05.741Z,100342.70
2023-04-25T09:24:09.089Z,100345.16
2023-04-25T09:25:12.224Z,100349.81
2023-04-25T09:26:17.285Z,100348.75
2023-04-25T09:27:23.127Z,100346.32
2023-04-25T09:28:28.513Z,100347.61
2023-04-25T09:29:35.005Z,100349.19
2023-04-25T09:30:37.285Z,100350.45
2023-04-25T09:31:52.409Z,100351.65
2023-04-25T09:32:57.331Z,100355.17
2023-04-25T09:34:02.775Z,100355.03
2023-04-25T09:35:10.678Z,100350.75
2023-04-25T09:36:13.577Z,100357.70
2023-04-25T09:37:37.258Z,100357.50
2023-04-25T09:39:15.557Z,100358.46
2023-04-25T09:40:20.088Z,100358.09
2023-04-25T09:41:30.248Z,100359.11
2023-04-25T09:42:35.848Z,100362.11
2023-04-25T09:43:38.187Z,100363.45
2023-04-25T09:44:46.250Z,100361.52
2023-04-25T09:45:48.933Z,100361.53
2023-04-25T09:46:54.548Z,100361.32
2023-04-25T09:48:06.421Z,100360.25
2023-04-25T09:49:08.649Z,100360.73
2023-04-25T09:50:20.243Z,100360.28
2023-04-25T09:51:27.326Z,100360.65
2023-04-25T09:52:29.384Z,100360.17
2023-04-25T09:53:50.220Z,100362.33
2023-04-25T09:55:14.611Z,100359.69
2023-04-25T09:56:16.518Z,100361.69
2023-04-25T09:57:24.949Z,100361.50
2023-04-25T09:58:32.703Z,100363.66
2023-04-25T09:59:39.040Z,100368.28
2023-04-25T10:00:41.619Z,100366.39
2023-04-25T10:01:50.420Z,100365.55
2023-04-25T10:03:01.759Z,100366.91
2023-04-25T10:04:29.209Z,100369.48
2023-04-25T10:05:36.082Z,100370.98
2023-04-25T10:06:39.220Z,100369.06
2023-04-25T10:07:41.514Z,100369.46
2023-04-25T10:08:54.093Z,100369.94
2023-04-25T10:10:03.645Z,100372.36
2023-04-25T10:11:08.202Z,100373.95
2023-04-25T10:12:10.209Z,100375.01
2023-04-25T10:13:11.852Z,100375.96
2023-04-25T10:14:14.010Z,100373.80
2023-04-25T10:15:15.848Z,100372.55
2023-04-25T10:16:18.120Z,100373.80
2023-04-25T10:17:20.420Z,100374.30
2023-04-25T10:18:22.412Z,100374.95
2023-04-25T10:19:24.950Z,100379.85
2023-04-25T10:20:26.627Z,100376.80
2023-04-25T10:21:31.757Z,100374.48
2023-04-25T10:22:37.258Z,100379.34
2023-04-25T10:23:39.171Z,100375.01
2023-04-25T10:24:42.091Z,100375.59
2023-04-25T10:25:44.252Z,100374.33
2023-04-25T10:26:47.243Z,100379.02
2023-04-25T10:27:51.798Z,100378.21
2023-04-25T10:28:58.162Z,100376.64
2023-04-25T10:30:11.543Z,100378.36
2023-04-25T10:31:16.739Z,100379.08
2023-04-25T10:32:18.353Z,100377.04
2023-04-25T10:33:32.568Z,100378.96
2023-04-25T10:34:42.736Z,100382.64
2023-04-25T10:35:45.736Z,100385.42
2023-04-25T10:36:55.200Z,100384.93
2023-04-25T10:38:05.489Z,100384.67
2023-04-25T10:39:09.178Z,100384.95
2023-04-25T10:40:11.684Z,100389.12
2023-04-25T10:41:14.381Z,100388.67
2023-04-25T10:42:16.158Z,100391.58
2023-04-25T10:43:35.840Z,100391.42
2023-04-25T10:44:39.260Z,100390.23
2023-04-25T10:45:53.528Z,100397.04
2023-04-25T10:46:57.224Z,100396.50
2023-04-25T10:47:58.717Z,100398.80
2023-04-25T10:49:02.171Z,100396.73
2023-04-25T10:50:08.762Z,100397.48
2023-04-25T10:51:11.766Z,100399.40
2023-04-25T10:52:28.548Z,100397.38
2023-04-25T10:53:33.820Z,100397.39
2023-04-25T10:54:35.327Z,100401.71
2023-04-25T10:55:50.320Z,100404.15
2023-04-25T10:56:51.901Z,100401.07
2023-04-25T10:57:54.711Z,100401.27
2023-04-25T10:59:06.609Z,100402.96
2023-04-25T11:00:16.944Z,100402.04
2023-04-25T11:01:24.860Z,100403.86
2023-04-25T11:02:29.557Z,100407.14
2023-04-25T11:03:31.516Z,100405.10
2023-04-25T11:04:39.079Z,100404.51
2023-04-25T11:05:57.378Z,100409.48
2023-04-25T11:07:07.964Z,100408.44
2023-04-25T11:08:14.432Z,100411.30
2023-04-25T11:09:15.927Z,100411.30
2023-04-25T11:10:18.004Z,100414.81
2023-04-25T11:11:20.092Z,100412.79
2023-04-25T11:12:21.799Z,100415.66
2023-04-25T11:13:29.168Z,100414.23
2023-04-25T11:14:31.297Z,100413.42
2023-04-25T11:15:32.819Z,100412.73
2023-04-25T11:16:34.423Z,100412.04
2023-04-25T11:17:36.111Z,100410.39
2023-04-25T11:18:38.673Z,100408.91
2023-04-25T11:19:40.859Z,100408.34
2023-04-25T11:20:44.021Z,100405.36
2023-04-25T11:21:45.515Z,100407.55
2023-04-25T11:22:47.691Z,100409.41
2023-04-25T11:23:49.297Z,100410.71
2023-04-25T11:24:51.368Z,100410.77
2023-04-25T11:25:53.022Z,100410.55
2023-04-25T11:26:54.679Z,100408.58
2023-04-25T11:27:58.217Z,100414.48
2023-04-25T11:29:03.143Z,100417.11
2023-04-25T11:30:13.652Z,100414.73
2023-04-25T11:31:15.636Z,100417.08
2023-04-25T11:32:19.732Z,100419.30
2023-04-25T11:33:27.451Z,100422.34
2023-04-25T11:34:31.042Z,100421.83
2023-04-25T11:35:33.997Z,100425.64
2023-04-25T11:36:38.504Z,100419.60
2023-04-25T11:37:41.383Z,100420.24
2023-04-25T11:38:43.108Z,100421.53
2023-04-25T11:39:46.463Z,100419.03
2023-04-25T11:40:52.693Z,100419.13
2023-04-25T11:41:55.017Z,100414.69
2023-04-25T11:42:56.617Z,100413.82
2023-04-25T11:43:58.830Z,100415.45
2023-04-25T11:45:00.754Z,100419.97
2023-04-25T11:46:08.450Z,100421.45
2023-04-25T11:47:10.037Z,100421.95
2023-04-25T11:48:11.871Z,100421.85
2023-04-25T11:49:14.458Z,100421.36
2023-04-25T11:50:15.866Z,100420.63
2023-04-25T11:51:17.779Z,100423.77
2023-04-25T11:52:19.197Z,100424.04
2023-04-25T11:53:20.788Z,100425.20
2023-04-25T11:54:23.302Z,100431.20
2023-04-25T11:55:24.857Z,100436.44
2023-04-25T11:56:26.444Z,100435.71
2023-04-25T11:57:28.035Z,100435.48
2023-04-25T11:58:29.482Z,100435.63
2023-04-25T11:59:31.296Z,100433.49
2023-04-25T12:00:33.045Z,100437.09
2023-04-25T12:01:35.975Z,100438.60
2023-04-25T12:02:41.376Z,100435.58
2023-04-25T12:03:48.809Z,100433.86
2023-04-25T12:04:50.904Z,100435.84
2023-04-25T12:05:52.809Z,100436.28
2023-04-25T12:06:56.006Z,100437.02
2023-04-25T12:07:57.783Z,100440.88
2023-04-25T12:09:04.140Z,100439.30
2023-04-25T12:10:10.678Z,100436.61
2023-04-25T12:11:22.244Z,100440.80
2023-04-25T12:12:28.213Z,100440.98
2023-04-25T12:13:31.893Z,100441.06
2023-04-25T12:14:35.984Z,100441.80
2023-04-25T12:15:41.160Z,100439.37
2023-04-25T12:16:46.084Z,100439.81
2023-04-25T12:17:53.215Z,100443.25
2023-04-25T12:18:57.348Z,100442.91
2023-04-25T12:19:58.828Z,100442.60
2023-04-25T12:21:00.432Z,100445.13
2023-04-25T12:22:05.485Z,100445.45
2023-04-25T12:23:12.002Z,100443.43
2023-04-25T12:24:15.892Z,100444.17
2023-04-25T12:25:38.457Z,100445.20
2023-04-25T12:27:00.250Z,100444.67
2023-04-25T12:28:24.939Z,100446.98
2023-04-25T12:29:31.749Z,100447.89
2023-04-25T12:31:08.798Z,100445.15
2023-04-25T12:32:10.783Z,100448.34
2023-04-25T12:33:12.292Z,100448.41
2023-04-25T12:34:13.888Z,100448.33